Time;durP1;ratioP1;P1;durP2;ratioP2;P2;SDS_P1;SDS_P2;PMS_P1;PMS_P2;Temp;Humidity;BMP_temperature;BMP_pressure;BME280_temperature;BME280_humidity;BME280_pressure;Samples;Min_cycle;Max_cycle;Signal;HPM_P1;HPM_P2
2021/07/16 00:02:21;;;;;;;3.57;2.63;;;15.70;99.90;;;;;;5002831;28;20233;-81
2021/07/16 00:04:47;;;;;;;4.37;2.63;;;15.70;99.90;;;;;;5001882;28;20282;-80
2021/07/16 00:07:13;;;;;;;4.20;3.00;;;15.70;99.90;;;;;;5000757;28;20202;-81
2021/07/16 00:09:38;;;;;;;3.73;3.17;;;15.70;99.90;;;;;;5000599;28;20175;-80
2021/07/16 00:12:04;;;;;;;3.57;3.10;;;15.70;99.90;;;;;;5002982;28;20206;-80
2021/07/16 00:14:32;;;;;;;3.40;3.10;;;15.70;99.90;;;;;;5019364;28;20242;-81
2021/07/16 00:16:58;;;;;;;3.30;3.00;;;15.80;99.90;;;;;;5020134;28;20202;-81
2021/07/16 00:19:24;;;;;;;3.50;3.07;;;15.80;99.90;;;;;;5021555;28;20211;-81
2021/07/16 00:21:50;;;;;;;4.83;3.27;;;15.80;99.90;;;;;;5020827;28;20194;-81
2021/07/16 00:24:15;;;;;;;5.23;3.27;;;15.80;99.90;;;;;;5020181;28;20179;-81
2021/07/16 00:26:41;;;;;;;4.13;3.23;;;15.80;99.90;;;;;;5020287;28;20180;-81
2021/07/16 00:29:07;;;;;;;3.97;3.40;;;15.80;99.90;;;;;;5019854;28;20194;-81
2021/07/16 00:31:35;;;;;;;9.80;5.00;;;15.80;99.90;;;;;;5019526;28;20211;-81
2021/07/16 00:34:01;;;;;;;4.37;3.77;;;15.80;99.90;;;;;;5018515;28;20177;-81
2021/07/16 00:36:27;;;;;;;4.73;3.00;;;15.80;99.90;;;;;;5019164;28;20180;-81
2021/07/16 00:38:52;;;;;;;2.50;2.20;;;15.70;99.90;;;;;;5018523;28;20192;-80
2021/07/16 00:41:18;;;;;;;2.30;2.10;;;15.60;99.90;;;;;;5020816;28;20275;-81
2021/07/16 00:43:43;;;;;;;3.10;2.20;;;15.60;99.90;;;;;;5020200;28;20219;-81
2021/07/16 00:46:09;;;;;;;3.43;2.20;;;15.60;99.90;;;;;;5000227;28;20183;-81
2021/07/16 00:48:35;;;;;;;2.40;2.20;;;15.60;99.90;;;;;;5017758;28;20190;-81
2021/07/16 00:51:00;;;;;;;3.63;2.17;;;15.60;99.90;;;;;;5017908;28;20339;-80
2021/07/16 00:53:26;;;;;;;3.00;2.80;;;15.60;99.90;;;;;;5017887;28;20183;-80
2021/07/16 00:55:52;;;;;;;4.33;2.83;;;15.60;99.90;;;;;;5001625;28;20175;-81
2021/07/16 00:58:18;;;;;;;2.87;2.43;;;15.70;99.90;;;;;;5019114;28;20206;-81
2021/07/16 01:00:44;;;;;;;2.90;2.60;;;15.70;99.90;;;;;;5018183;28;20308;-81
2021/07/16 01:03:10;;;;;;;3.97;2.60;;;15.70;99.90;;;;;;5000152;28;20206;-81
2021/07/16 01:05:36;;;;;;;5.00;2.63;;;15.70;99.90;;;;;;5018009;28;20988;-81
2021/07/16 01:08:03;;;;;;;2.57;2.30;;;15.60;99.90;;;;;;5017711;28;20275;-80
2021/07/16 01:10:30;;;;;;;4.50;2.10;;;15.60;99.90;;;;;;5017622;28;20745;-80
2021/07/16 01:12:57;;;;;;;3.70;2.50;;;15.60;99.90;;;;;;5017192;28;20233;-81
2021/07/16 01:15:25;;;;;;;4.10;2.67;;;15.60;99.90;;;;;;4999994;28;20179;-81
2021/07/16 01:17:52;;;;;;;3.30;3.00;;;15.60;99.90;;;;;;4999538;28;20203;-81
2021/07/16 01:20:20;;;;;;;3.10;2.33;;;15.70;99.90;;;;;;5016922;28;20211;-81
2021/07/16 01:22:47;;;;;;;2.73;2.33;;;15.70;99.90;;;;;;4999710;28;20189;-81
2021/07/16 01:25:16;;;;;;;3.63;2.50;;;15.70;99.90;;;;;;5017578;28;20650;-81
2021/07/16 01:27:44;;;;;;;5.83;2.73;;;15.80;99.90;;;;;;5017384;28;20186;-81
2021/07/16 01:30:12;;;;;;;3.57;2.57;;;15.80;99.90;;;;;;5017092;28;20212;-80
2021/07/16 01:32:38;;;;;;;2.50;2.40;;;15.80;99.90;;;;;;5017568;28;21259;-81
2021/07/16 01:35:09;;;;;;;4.77;2.20;;;15.70;99.90;;;;;;5018230;28;20187;-80
2021/07/16 01:37:37;;;;;;;2.47;2.27;;;15.70;99.90;;;;;;5018033;28;20241;-80
2021/07/16 01:40:15;;;;;;;2.70;2.13;;;15.60;99.90;;;;;;4998741;28;20193;-80
2021/07/16 01:42:43;;;;;;;6.63;2.70;;;15.70;99.90;;;;;;4998756;28;20183;-81
2021/07/16 01:45:11;;;;;;;3.20;2.60;;;15.70;99.90;;;;;;4999772;28;20173;-81
2021/07/16 01:47:40;;;;;;;3.87;2.90;;;15.70;99.90;;;;;;5016557;28;20175;-81
2021/07/16 01:50:07;;;;;;;2.60;2.40;;;15.70;99.90;;;;;;5018078;28;20209;-80
2021/07/16 01:52:35;;;;;;;3.50;2.43;;;15.60;99.90;;;;;;5017189;28;20206;-80
2021/07/16 01:55:02;;;;;;;3.00;2.70;;;15.50;99.90;;;;;;5017119;28;20259;-80
2021/07/16 01:57:28;;;;;;;3.10;2.80;;;15.40;99.90;;;;;;4994183;28;20182;-80
2021/07/16 01:59:54;;;;;;;3.20;2.90;;;15.40;99.90;;;;;;5022707;28;20179;-81
2021/07/16 02:02:20;;;;;;;3.13;2.83;;;15.40;99.90;;;;;;5014848;28;20294;-80
2021/07/16 02:04:45;;;;;;;4.73;3.10;;;15.40;99.90;;;;;;5014446;28;20229;-81
2021/07/16 02:07:11;;;;;;;6.20;3.70;;;15.50;99.90;;;;;;5016788;28;20713;-81
2021/07/16 02:09:37;;;;;;;7.33;3.03;;;15.50;99.90;;;;;;5016418;28;20183;-81
2021/07/16 02:12:03;;;;;;;4.13;3.83;;;15.60;99.90;;;;;;5015808;28;20211;-81
2021/07/16 02:14:29;;;;;;;3.27;3.00;;;15.60;99.90;;;;;;4998767;28;20179;-80
2021/07/16 02:16:55;;;;;;;4.57;4.20;;;15.50;99.90;;;;;;5016173;28;20619;-81
2021/07/16 02:19:21;;;;;;;4.50;4.20;;;15.50;99.90;;;;;;5016563;28;20207;-79
2021/07/16 02:21:47;;;;;;;5.60;4.63;;;15.50;99.90;;;;;;5015862;28;20215;-80
2021/07/16 02:24:13;;;;;;;7.83;5.40;;;15.40;99.90;;;;;;5018473;28;20195;-80
2021/07/16 02:26:39;;;;;;;5.63;5.23;;;15.40;99.90;;;;;;5026575;28;20183;-80
2021/07/16 02:29:05;;;;;;;5.77;5.37;;;15.40;99.90;;;;;;5028847;28;20217;-80
2021/07/16 02:31:31;;;;;;;6.27;5.40;;;15.40;99.90;;;;;;5028115;28;20234;-80
2021/07/16 02:33:57;;;;;;;9.97;5.70;;;15.40;99.90;;;;;;5024290;28;20201;-80
2021/07/16 02:36:23;;;;;;;6.50;5.87;;;15.40;99.90;;;;;;5024051;28;20242;-80
2021/07/16 02:38:50;;;;;;;6.07;5.53;;;15.40;99.90;;;;;;5017546;28;20246;-80
2021/07/16 02:41:16;;;;;;;6.40;6.00;;;15.40;99.90;;;;;;4999922;28;20206;-80
2021/07/16 02:43:42;;;;;;;6.23;5.63;;;15.40;99.90;;;;;;4999088;28;20194;-80
2021/07/16 02:46:07;;;;;;;7.20;6.53;;;15.40;99.90;;;;;;5016731;28;20185;-80
2021/07/16 02:48:34;;;;;;;5.33;4.93;;;15.40;99.90;;;;;;4998691;28;20197;-80
2021/07/16 02:51:00;;;;;;;4.60;4.30;;;15.40;99.90;;;;;;5016662;28;20211;-80
2021/07/16 02:53:26;;;;;;;5.60;5.10;;;15.30;99.90;;;;;;4998124;28;20201;-80
2021/07/16 02:55:52;;;;;;;6.10;5.50;;;15.30;99.90;;;;;;5051362;22;20230;-77
2021/07/16 02:58:18;;;;;;;6.37;4.73;;;15.30;99.90;;;;;;5052368;28;20522;-77
2021/07/16 03:00:44;;;;;;;6.00;5.40;;;15.30;99.90;;;;;;5051338;28;20650;-77
2021/07/16 03:03:10;;;;;;;6.30;5.70;;;15.20;99.90;;;;;;5051076;28;20193;-78
2021/07/16 03:05:37;;;;;;;5.63;5.23;;;15.30;99.90;;;;;;5047125;28;20286;-78
2021/07/16 03:08:08;;;;;;;6.13;5.63;;;15.30;99.90;;;;;;5031387;28;20202;-77
2021/07/16 03:10:42;;;;;;;6.10;5.70;;;15.30;99.90;;;;;;5031294;28;20198;-76
2021/07/16 03:13:14;;;;;;;6.10;5.60;;;15.30;99.90;;;;;;5013533;28;20188;-75
2021/07/16 03:15:40;;;;;;;8.00;5.80;;;15.30;99.90;;;;;;5031207;28;20207;-79
2021/07/16 03:18:07;;;;;;;6.00;5.40;;;15.30;99.90;;;;;;5033545;28;20179;-78
2021/07/16 03:20:38;;;;;;;8.97;5.87;;;15.30;99.90;;;;;;5033516;28;20183;-77
2021/07/16 03:23:06;;;;;;;7.20;6.33;;;15.20;99.90;;;;;;5033552;28;20180;-77
2021/07/16 03:25:33;;;;;;;6.30;5.70;;;15.20;99.90;;;;;;5013116;28;20198;-78
2021/07/16 03:27:59;;;;;;;7.10;6.47;;;15.20;99.90;;;;;;5027745;28;20187;-76
2021/07/16 03:30:27;;;;;;;6.50;6.00;;;15.20;99.90;;;;;;5031781;28;20190;-77
2021/07/16 03:32:53;;;;;;;7.30;6.57;;;15.30;99.90;;;;;;5031480;28;20529;-77
2021/07/16 03:35:19;;;;;;;7.10;6.43;;;15.30;99.90;;;;;;5013600;28;20189;-78
2021/07/16 03:37:46;;;;;;;8.37;7.17;;;15.30;99.90;;;;;;5030816;28;20186;-78
2021/07/16 03:40:14;;;;;;;8.07;7.33;;;15.20;99.90;;;;;;5031219;28;20530;-78
2021/07/16 03:42:41;;;;;;;7.63;7.03;;;15.20;99.90;;;;;;5031192;28;20205;-78
2021/07/16 03:45:08;;;;;;;8.10;7.30;;;15.10;99.90;;;;;;5031234;28;20671;-78
2021/07/16 03:47:33;;;;;;;7.90;7.10;;;15.10;99.90;;;;;;5032158;28;20216;-78
2021/07/16 03:49:59;;;;;;;8.30;7.60;;;15.10;99.90;;;;;;5031683;28;20183;-77
2021/07/16 03:52:25;;;;;;;7.57;6.97;;;15.00;99.90;;;;;;5014125;28;20180;-77
2021/07/16 03:54:51;;;;;;;8.37;7.67;;;15.10;99.90;;;;;;5021300;28;20175;-77
2021/07/16 03:57:17;;;;;;;8.10;7.40;;;15.10;99.90;;;;;;5032220;28;20202;-77
2021/07/16 03:59:43;;;;;;;7.97;7.27;;;15.10;99.90;;;;;;5032952;28;20183;-76
2021/07/16 04:02:09;;;;;;;8.13;7.53;;;15.10;99.90;;;;;;5025372;28;20210;-77
2021/07/16 04:04:34;;;;;;;9.77;8.87;;;15.10;99.90;;;;;;5021163;28;20228;-77
2021/07/16 04:07:01;;;;;;;8.80;7.97;;;15.00;99.90;;;;;;5008170;28;20210;-75
2021/07/16 04:09:28;;;;;;;8.70;8.00;;;15.00;99.90;;;;;;5007219;28;20171;-78
2021/07/16 04:12:11;;;;;;;9.17;8.23;;;15.10;99.90;;;;;;5011448;28;20205;-76
2021/07/16 04:14:40;;;;;;;9.50;8.80;;;15.00;99.90;;;;;;5018251;28;20236;-78
2021/07/16 04:17:22;;;;;;;9.53;8.83;;;15.00;99.90;;;;;;5027439;28;20202;-77
2021/07/16 04:19:48;;;;;;;10.07;9.27;;;15.00;99.90;;;;;;5018295;28;20175;-77
2021/07/16 04:22:14;;;;;;;10.20;9.50;;;15.00;99.90;;;;;;5030030;28;20551;-77
2021/07/16 04:24:41;;;;;;;9.77;8.97;;;15.00;99.90;;;;;;5018373;28;20175;-76
2021/07/16 04:27:08;;;;;;;14.43;9.60;;;15.00;99.90;;;;;;5035457;28;20677;-78
2021/07/16 04:29:34;;;;;;;10.93;9.93;;;15.00;99.90;;;;;;5033174;28;20174;-77
2021/07/16 04:32:01;;;;;;;11.57;10.47;;;15.00;99.90;;;;;;5037364;28;20672;-77
2021/07/16 04:34:32;;;;;;;10.80;9.80;;;15.00;99.90;;;;;;5018117;28;20269;-76
2021/07/16 04:36:59;;;;;;;10.47;9.40;;;15.10;99.90;;;;;;5035330;28;20190;-78
2021/07/16 04:39:25;;;;;;;10.70;9.80;;;15.10;99.90;;;;;;5021925;28;20183;-79
2021/07/16 04:41:51;;;;;;;10.43;9.60;;;15.10;99.90;;;;;;5018264;28;20196;-80
2021/07/16 04:44:17;;;;;;;9.50;8.70;;;15.20;99.90;;;;;;5034860;28;20645;-80
2021/07/16 04:46:42;;;;;;;10.10;9.30;;;15.20;99.90;;;;;;5036411;28;20281;-79
2021/07/16 04:49:08;;;;;;;9.27;8.47;;;15.30;99.90;;;;;;5018583;28;20193;-80
2021/07/16 04:51:35;;;;;;;10.07;9.37;;;15.30;99.90;;;;;;5035973;28;20281;-80
2021/07/16 04:54:02;;;;;;;9.70;8.83;;;15.40;99.90;;;;;;5018514;28;20171;-79
2021/07/16 04:56:29;;;;;;;9.93;8.90;;;15.40;99.90;;;;;;5036308;28;20210;-80
2021/07/16 04:58:55;;;;;;;9.67;8.97;;;15.50;99.90;;;;;;5036070;28;20167;-79
2021/07/16 05:01:22;;;;;;;8.63;8.03;;;15.50;99.90;;;;;;5018047;28;20181;-79
2021/07/16 05:03:49;;;;;;;9.20;8.50;;;15.50;99.90;;;;;;5018501;28;20668;-80
2021/07/16 05:06:14;;;;;;;9.00;8.20;;;15.50;99.90;;;;;;5018228;28;20194;-79
2021/07/16 05:08:40;;;;;;;9.30;8.50;;;15.60;99.90;;;;;;5036314;28;20226;-80
2021/07/16 05:11:07;;;;;;;12.17;8.70;;;15.60;99.90;;;;;;5018132;28;20569;-79
2021/07/16 05:13:36;;;;;;;11.80;8.50;;;15.70;99.90;;;;;;5035885;28;20258;-80
2021/07/16 05:16:03;;;;;;;8.10;7.30;;;15.70;99.90;;;;;;5035797;28;20182;-79
2021/07/16 05:18:28;;;;;;;7.00;6.50;;;15.70;99.90;;;;;;5035775;28;20261;-79
2021/07/16 05:20:54;;;;;;;6.77;6.37;;;15.70;99.90;;;;;;5016759;28;20206;-79
2021/07/16 05:23:20;;;;;;;7.37;6.87;;;15.70;99.90;;;;;;5018076;28;20175;-79
2021/07/16 05:25:45;;;;;;;6.97;6.40;;;15.70;99.90;;;;;;5035740;28;20562;-79
2021/07/16 05:28:11;;;;;;;6.57;6.10;;;15.70;99.90;;;;;;5035924;28;20643;-79
2021/07/16 05:30:36;;;;;;;7.47;6.87;;;15.80;99.90;;;;;;5035672;28;20198;-80
2021/07/16 05:33:02;;;;;;;8.53;7.93;;;15.80;99.90;;;;;;5017689;28;20181;-79
2021/07/16 05:35:28;;;;;;;7.43;6.93;;;15.80;99.90;;;;;;5035413;28;20279;-80
2021/07/16 05:37:53;;;;;;;8.47;7.70;;;15.80;99.90;;;;;;5035463;28;20166;-79
2021/07/16 05:40:19;;;;;;;8.37;7.70;;;15.70;99.90;;;;;;5035555;28;20186;-80
2021/07/16 05:42:45;;;;;;;7.40;6.90;;;15.70;99.90;;;;;;5017660;28;20180;-80
2021/07/16 05:45:11;;;;;;;7.70;7.10;;;15.70;99.90;;;;;;5035479;28;20212;-79
2021/07/16 05:47:36;;;;;;;7.00;6.50;;;15.70;99.90;;;;;;5035505;28;20186;-79
2021/07/16 05:50:03;;;;;;;7.80;7.00;;;15.80;99.90;;;;;;5034935;28;20205;-80
2021/07/16 05:52:32;;;;;;;7.53;6.87;;;15.80;99.90;;;;;;5017383;28;20175;-79
2021/07/16 05:54:57;;;;;;;6.83;6.27;;;15.90;99.90;;;;;;5017556;28;20257;-80
2021/07/16 05:57:23;;;;;;;6.83;6.33;;;15.90;99.90;;;;;;5017227;28;20229;-80
2021/07/16 05:59:48;;;;;;;7.30;6.60;;;15.90;99.90;;;;;;5017407;28;20300;-80
2021/07/16 06:02:14;;;;;;;7.00;6.50;;;15.90;99.90;;;;;;5017745;28;20178;-80
2021/07/16 06:04:40;;;;;;;7.23;6.73;;;16.00;99.90;;;;;;5017919;28;20185;-79
2021/07/16 06:07:05;;;;;;;8.83;7.00;;;15.90;99.90;;;;;;5034928;28;20707;-80
2021/07/16 06:09:31;;;;;;;7.40;6.53;;;15.90;99.90;;;;;;5035239;28;20182;-80
2021/07/16 06:11:57;;;;;;;7.33;6.73;;;15.90;99.90;;;;;;5017385;28;20233;-79
2021/07/16 06:14:23;;;;;;;7.90;7.30;;;15.90;99.90;;;;;;5034822;28;20178;-80
2021/07/16 06:16:49;;;;;;;7.23;6.67;;;15.90;99.90;;;;;;5034804;28;20187;-79
2021/07/16 06:19:19;;;;;;;8.63;7.07;;;15.90;99.90;;;;;;5017294;28;20269;-79
2021/07/16 06:21:45;;;;;;;8.43;7.77;;;16.00;99.90;;;;;;5034593;28;20191;-80
2021/07/16 06:24:11;;;;;;;8.17;7.57;;;16.00;99.90;;;;;;5034470;28;20175;-80
2021/07/16 06:26:38;;;;;;;7.40;6.80;;;16.00;99.90;;;;;;5034429;28;20198;-79
2021/07/16 06:29:05;;;;;;;7.33;6.73;;;16.10;99.90;;;;;;5034524;28;20174;-79
2021/07/16 06:31:31;;;;;;;8.20;7.30;;;16.10;99.90;;;;;;5016423;28;20221;-80
2021/07/16 06:33:57;;;;;;;6.80;6.30;;;16.10;99.90;;;;;;5034460;28;20181;-80
2021/07/16 06:36:23;;;;;;;7.40;6.77;;;16.20;99.90;;;;;;5034883;28;20224;-79
2021/07/16 06:38:49;;;;;;;7.03;6.53;;;16.20;99.90;;;;;;5034906;28;20207;-80
2021/07/16 06:41:15;;;;;;;7.17;6.67;;;16.20;99.90;;;;;;5034389;28;20179;-80
2021/07/16 06:43:40;;;;;;;6.43;5.97;;;16.10;99.90;;;;;;5034530;28;20184;-79
2021/07/16 06:46:08;;;;;;;7.40;6.77;;;16.10;99.90;;;;;;5035243;28;20240;-79
2021/07/16 06:48:34;;;;;;;8.10;7.30;;;16.20;99.90;;;;;;5016825;28;20209;-80
2021/07/16 06:51:01;;;;;;;7.33;6.73;;;16.20;99.90;;;;;;5016454;28;20221;-80
2021/07/16 06:53:26;;;;;;;7.63;7.03;;;16.30;99.90;;;;;;5016696;28;20184;-80
2021/07/16 06:55:52;;;;;;;6.93;6.43;;;16.30;99.90;;;;;;5034174;28;20210;-79
2021/07/16 06:58:18;;;;;;;6.53;6.03;;;16.40;99.90;;;;;;5034474;28;20176;-80
2021/07/16 07:00:44;;;;;;;6.63;4.43;;;16.50;99.90;;;;;;5016331;28;20715;-79
2021/07/16 07:03:10;;;;;;;5.80;5.20;;;16.50;99.90;;;;;;5034149;28;20187;-77
2021/07/16 07:05:36;;;;;;;5.23;4.83;;;16.50;99.90;;;;;;5034454;28;20691;-80
2021/07/16 07:08:02;;;;;;;6.20;5.60;;;16.50;99.90;;;;;;5034738;28;20180;-80
2021/07/16 07:10:28;;;;;;;6.17;5.67;;;16.60;99.90;;;;;;5034087;28;20201;-79
2021/07/16 07:12:53;;;;;;;4.83;4.53;;;16.70;99.90;;;;;;5016639;28;20181;-79
2021/07/16 07:15:19;;;;;;;4.90;4.50;;;16.70;99.90;;;;;;5034108;28;20205;-80
2021/07/16 07:17:46;;;;;;;5.93;4.20;;;16.70;99.90;;;;;;5016310;28;20172;-79
2021/07/16 07:20:12;;;;;;;5.20;4.80;;;16.70;99.90;;;;;;5034030;28;20176;-80
2021/07/16 07:22:39;;;;;;;5.47;4.97;;;16.70;99.90;;;;;;5033956;28;20182;-79
2021/07/16 07:25:06;;;;;;;7.47;6.87;;;16.70;99.90;;;;;;5033959;28;20171;-80
2021/07/16 07:27:32;;;;;;;5.00;4.00;;;16.80;99.90;;;;;;5033723;28;20280;-79
2021/07/16 07:29:58;;;;;;;5.07;4.67;;;16.80;99.90;;;;;;5016106;28;20240;-79
2021/07/16 07:32:24;;;;;;;4.87;4.40;;;16.80;99.90;;;;;;5015943;28;20545;-79
2021/07/16 07:34:50;;;;;;;4.27;3.97;;;16.90;99.90;;;;;;5015875;28;20186;-80
2021/07/16 07:37:15;;;;;;;4.80;4.50;;;16.90;99.90;;;;;;5033601;28;20616;-79
2021/07/16 07:39:42;;;;;;;4.77;4.37;;;16.90;99.90;;;;;;5016112;28;20171;-79
2021/07/16 07:42:07;;;;;;;4.70;4.40;;;16.90;99.90;;;;;;5015759;28;20182;-80
2021/07/16 07:44:33;;;;;;;4.50;4.10;;;17.00;99.90;;;;;;5036071;28;20169;-79
2021/07/16 07:47:00;;;;;;;4.20;3.90;;;16.90;99.90;;;;;;5037357;28;20693;-80
2021/07/16 07:49:28;;;;;;;4.43;4.13;;;16.90;99.90;;;;;;5019275;28;20238;-80
2021/07/16 07:51:54;;;;;;;4.10;3.90;;;16.90;99.90;;;;;;5019508;28;20716;-79
2021/07/16 07:54:19;;;;;;;4.63;4.23;;;16.90;99.90;;;;;;5037692;28;20178;-77
2021/07/16 07:56:45;;;;;;;4.53;4.23;;;16.90;99.90;;;;;;5036698;28;20210;-80
2021/07/16 07:59:10;;;;;;;3.80;3.33;;;17.00;99.90;;;;;;5036905;28;20179;-79
2021/07/16 08:01:36;;;;;;;4.00;3.80;;;16.90;99.90;;;;;;5037011;28;20174;-79
2021/07/16 08:04:03;;;;;;;4.60;4.30;;;17.00;99.90;;;;;;5037206;28;20166;-80
2021/07/16 08:06:29;;;;;;;4.30;4.00;;;17.10;99.90;;;;;;5019113;28;20568;-80
2021/07/16 08:08:54;;;;;;;4.97;3.93;;;17.10;99.90;;;;;;5019355;28;20175;-79
2021/07/16 08:11:20;;;;;;;4.90;4.50;;;17.10;99.90;;;;;;5018880;28;20273;-78
2021/07/16 08:13:46;;;;;;;4.80;4.40;;;17.00;99.90;;;;;;5036427;28;20240;-78
2021/07/16 08:16:11;;;;;;;5.27;4.87;;;17.10;99.90;;;;;;5019314;28;20211;-78
2021/07/16 08:18:37;;;;;;;5.63;5.00;;;17.00;99.90;;;;;;5036800;28;20228;-78
2021/07/16 08:21:03;;;;;;;7.33;4.87;;;16.90;99.90;;;;;;5036600;28;20196;-78
2021/07/16 08:23:29;;;;;;;4.63;4.23;;;16.90;99.90;;;;;;5036513;28;20668;-79
2021/07/16 08:25:54;;;;;;;5.40;5.00;;;16.70;99.90;;;;;;5018670;28;20197;-78
2021/07/16 08:28:20;;;;;;;4.90;4.50;;;16.70;99.90;;;;;;5019095;28;20193;-79
2021/07/16 08:30:46;;;;;;;5.00;4.70;;;16.70;99.90;;;;;;5018726;28;20203;-79
2021/07/16 08:33:12;;;;;;;5.80;5.37;;;16.60;99.90;;;;;;5037078;28;20175;-79
2021/07/16 08:35:37;;;;;;;5.57;5.17;;;16.60;99.90;;;;;;5036260;28;20197;-79
2021/07/16 08:38:05;;;;;;;5.40;5.10;;;16.70;99.90;;;;;;5036452;28;20546;-79
2021/07/16 08:40:32;;;;;;;5.30;4.90;;;16.60;99.90;;;;;;5018633;28;20599;-79
2021/07/16 08:42:58;;;;;;;5.20;4.80;;;16.60;99.90;;;;;;5036690;28;20210;-79
2021/07/16 08:45:26;;;;;;;4.70;4.40;;;16.60;99.90;;;;;;5037003;28;20178;-79
2021/07/16 08:47:52;;;;;;;4.80;4.50;;;16.70;99.90;;;;;;5036064;28;20184;-79
2021/07/16 08:50:19;;;;;;;5.27;4.97;;;16.70;99.90;;;;;;5035986;28;20178;-79
2021/07/16 08:52:46;;;;;;;5.20;4.80;;;16.70;99.90;;;;;;5036171;28;20170;-80
2021/07/16 08:55:14;;;;;;;5.80;5.40;;;16.80;99.90;;;;;;5036003;28;20265;-79
2021/07/16 08:57:40;;;;;;;5.90;5.50;;;16.90;99.90;;;;;;5036974;28;20178;-82
2021/07/16 09:00:08;;;;;;;5.27;4.93;;;17.00;99.90;;;;;;5035351;28;20228;-82
2021/07/16 09:02:35;;;;;;;5.80;5.40;;;17.00;99.90;;;;;;5037768;28;20167;-81
2021/07/16 09:05:07;;;;;;;5.40;5.00;;;17.00;99.90;;;;;;5038053;28;20180;-82
2021/07/16 09:07:42;;;;;;;4.53;4.17;;;17.00;99.90;;;;;;5037583;28;20203;-82
2021/07/16 09:10:09;;;;;;;4.40;4.00;;;17.00;99.90;;;;;;5019495;28;20179;-81
2021/07/16 09:12:36;;;;;;;5.07;4.73;;;17.00;99.90;;;;;;5020299;28;20174;-81
2021/07/16 09:15:22;;;;;;;6.53;5.73;;;17.20;99.90;;;;;;5019408;28;20549;-82
2021/07/16 09:17:47;;;;;;;5.07;4.67;;;17.40;99.90;;;;;;5020127;28;20221;-82
2021/07/16 09:20:26;;;;;;;6.17;5.67;;;17.30;99.90;;;;;;5037325;28;20176;-82
2021/07/16 09:23:12;;;;;;;5.60;5.30;;;17.40;99.90;;;;;;5037221;28;20181;-82
2021/07/16 09:25:39;;;;;;;5.40;5.00;;;17.50;99.90;;;;;;5038196;28;20214;-82
2021/07/16 09:28:05;;;;;;;4.33;4.03;;;17.50;99.90;;;;;;5019921;28;20171;-82
2021/07/16 09:30:31;;;;;;;4.13;3.83;;;17.50;99.90;;;;;;5037940;28;20199;-82
2021/07/16 09:33:05;;;;;;;4.83;4.43;;;17.50;99.90;;;;;;5019463;28;20174;-82
2021/07/16 09:35:33;;;;;;;4.90;4.50;;;17.50;99.90;;;;;;5038184;28;20191;-79
2021/07/16 09:38:03;;;;;;;5.00;4.50;;;17.50;99.90;;;;;;5037096;28;20169;-81
2021/07/16 09:40:36;;;;;;;4.03;3.67;;;17.50;99.90;;;;;;5037821;28;20182;-81
2021/07/16 09:43:24;;;;;;;4.70;4.40;;;17.50;99.90;;;;;;5019538;28;20187;-81
2021/07/16 09:46:03;;;;;;;5.63;5.23;;;17.60;99.90;;;;;;5019766;28;20548;-81
2021/07/16 09:48:34;;;;;;;4.30;4.00;;;17.70;99.90;;;;;;5036844;28;20188;-82
2021/07/16 09:51:20;;;;;;;5.73;5.37;;;17.70;99.90;;;;;;5036858;28;20571;-82
2021/07/16 09:53:50;;;;;;;6.50;6.10;;;17.90;99.90;;;;;;5037536;28;20254;-82
2021/07/16 09:56:36;;;;;;;5.03;4.73;;;18.00;99.90;;;;;;5019218;28;20231;-81
2021/07/16 09:59:13;;;;;;;5.30;5.00;;;18.10;99.90;;;;;;5018838;28;20674;-82
2021/07/16 10:01:41;;;;;;;4.47;4.07;;;18.10;99.90;;;;;;5036913;28;20172;-82
2021/07/16 10:04:17;;;;;;;5.30;5.00;;;18.10;99.90;;;;;;5036886;28;20260;-82
2021/07/16 10:06:43;;;;;;;3.97;3.77;;;18.10;99.90;;;;;;5035739;28;20689;-81
2021/07/16 10:09:09;;;;;;;3.67;3.47;;;18.10;99.90;;;;;;5019027;28;20179;-82
2021/07/16 10:11:36;;;;;;;4.30;4.00;;;18.20;99.90;;;;;;5018445;28;20222;-81
2021/07/16 10:14:03;;;;;;;5.20;4.90;;;18.30;99.90;;;;;;5019069;28;20175;-82
2021/07/16 10:16:30;;;;;;;4.10;3.80;;;18.60;99.90;;;;;;5036180;28;20707;-82
2021/07/16 10:18:56;;;;;;;3.30;3.00;;;18.80;99.90;;;;;;5036440;28;20174;-82
2021/07/16 10:21:22;;;;;;;3.63;3.37;;;18.90;99.90;;;;;;5036422;28;20292;-82
2021/07/16 10:23:50;;;;;;;3.90;3.70;;;18.90;99.90;;;;;;5018765;28;20687;-82
2021/07/16 10:26:18;;;;;;;3.23;3.03;;;19.00;99.90;;;;;;5035866;28;20208;-82
2021/07/16 10:28:45;;;;;;;2.50;2.30;;;19.10;99.90;;;;;;5001765;28;20214;-82
2021/07/16 10:31:32;;;;;;;3.00;2.80;;;19.20;99.90;;;;;;5036214;28;20200;-81
2021/07/16 10:34:11;;;;;;;2.10;2.00;;;19.40;99.90;;;;;;5018237;28;20717;-81
2021/07/16 10:36:45;;;;;;;1.90;1.80;;;19.50;99.90;;;;;;5035773;28;20228;-81
2021/07/16 10:39:21;;;;;;;1.87;1.77;;;19.60;99.90;;;;;;5035469;28;20231;-81
2021/07/16 10:41:47;;;;;;;1.80;1.70;;;19.70;99.90;;;;;;5035795;28;20182;-80
2021/07/16 10:44:14;;;;;;;2.10;2.00;;;19.60;99.90;;;;;;5035178;28;20230;-81
2021/07/16 10:46:44;;;;;;;2.90;2.70;;;19.60;99.90;;;;;;5035566;28;20206;-81
2021/07/16 10:49:12;;;;;;;3.13;2.83;;;19.60;99.90;;;;;;5018804;28;20675;-81
2021/07/16 10:51:39;;;;;;;2.77;2.57;;;19.50;99.90;;;;;;5035305;28;20210;-81
2021/07/16 10:54:10;;;;;;;3.60;3.40;;;19.40;99.90;;;;;;5017821;28;20717;-81
2021/07/16 10:56:43;;;;;;;3.43;3.23;;;19.20;99.90;;;;;;5036217;28;20301;-81
2021/07/16 10:59:09;;;;;;;3.00;2.77;;;19.30;99.90;;;;;;5018223;28;20190;-82
2021/07/16 11:01:37;;;;;;;3.50;3.20;;;19.30;99.90;;;;;;5018352;28;20185;-81
2021/07/16 11:04:07;;;;;;;3.90;3.60;;;19.40;99.90;;;;;;5034769;28;20208;-82
2021/07/16 11:06:49;;;;;;;4.50;4.10;;;19.40;99.90;;;;;;5034044;28;20194;-79
2021/07/16 11:09:39;;;;;;;3.60;3.40;;;19.40;99.90;;;;;;5033655;28;20212;-81
2021/07/16 11:12:25;;;;;;;3.23;3.03;;;19.50;99.90;;;;;;5018610;28;20201;-81
2021/07/16 11:14:51;;;;;;;3.03;2.83;;;19.60;99.90;;;;;;5026236;28;20178;-79
2021/07/16 11:17:32;;;;;;;2.60;2.40;;;19.40;99.90;;;;;;5016163;28;20680;-79
2021/07/16 11:20:19;;;;;;;3.30;2.30;;;19.40;99.90;;;;;;5019565;28;20607;-79
2021/07/16 11:22:57;;;;;;;2.53;2.37;;;19.30;99.90;;;;;;5025660;28;20190;-79
2021/07/16 11:25:24;;;;;;;2.17;2.00;;;19.20;99.90;;;;;;5025094;28;20185;-79
2021/07/16 11:27:49;;;;;;;2.07;1.97;;;19.20;99.90;;;;;;5011313;28;20220;-82
2021/07/16 11:30:15;;;;;;;2.57;2.37;;;19.10;99.90;;;;;;5025874;28;20206;-82
2021/07/16 11:32:41;;;;;;;2.50;2.40;;;19.10;99.90;;;;;;5035402;28;20186;-80
2021/07/16 11:35:09;;;;;;;2.77;2.33;;;19.20;99.90;;;;;;5034729;28;20193;-79
2021/07/16 11:37:43;;;;;;;2.37;2.27;;;19.20;99.90;;;;;;5026930;28;20933;-81
2021/07/16 11:40:11;;;;;;;2.10;1.90;;;19.30;99.90;;;;;;5017449;28;20571;-79
2021/07/16 11:42:39;;;;;;;1.87;1.77;;;19.30;99.90;;;;;;5022867;28;20192;-79
2021/07/16 11:45:09;;;;;;;2.00;1.90;;;19.20;99.90;;;;;;5011189;28;20665;-79
2021/07/16 11:47:35;;;;;;;1.70;1.60;;;19.20;99.90;;;;;;5034345;28;20216;-79
2021/07/16 11:50:11;;;;;;;3.17;1.80;;;19.20;99.90;;;;;;5028241;28;20652;-79
2021/07/16 11:52:39;;;;;;;1.83;1.73;;;19.30;99.90;;;;;;5008802;28;20253;-78
2021/07/16 11:55:20;;;;;;;1.40;1.30;;;19.50;99.90;;;;;;5016745;28;20182;-80
2021/07/16 11:57:50;;;;;;;1.47;1.37;;;19.40;99.90;;;;;;5035042;28;20197;-79
2021/07/16 12:00:17;;;;;;;1.30;1.20;;;19.40;99.90;;;;;;5030197;28;20204;-80
2021/07/16 12:02:42;;;;;;;1.47;0.70;;;19.40;99.90;;;;;;5028176;28;20174;-80
2021/07/16 12:05:09;;;;;;;1.00;0.90;;;19.40;99.90;;;;;;5032208;28;20544;-81
2021/07/16 12:07:36;;;;;;;1.20;1.10;;;19.50;99.90;;;;;;5031032;28;20192;-79
2021/07/16 12:10:11;;;;;;;1.40;1.30;;;19.60;99.90;;;;;;5031068;28;20173;-79
2021/07/16 12:12:37;;;;;;;1.33;1.13;;;19.60;99.90;;;;;;5016517;28;20176;-80
2021/07/16 12:15:24;;;;;;;1.00;1.00;;;19.70;99.90;;;;;;5031311;28;20658;-77
2021/07/16 12:17:55;;;;;;;1.00;0.90;;;19.70;99.90;;;;;;5032305;28;20194;-80
2021/07/16 12:20:27;;;;;;;0.90;0.80;;;19.80;99.90;;;;;;5032075;28;20573;-80
2021/07/16 12:22:53;;;;;;;1.17;1.07;;;19.80;99.90;;;;;;5035703;28;20173;-80
2021/07/16 12:25:19;;;;;;;1.43;1.00;;;19.90;99.90;;;;;;5032964;28;20247;-80
2021/07/16 12:27:44;;;;;;;1.50;1.40;;;19.80;99.90;;;;;;5032141;28;20182;-78
2021/07/16 12:30:13;;;;;;;0.60;0.60;;;19.80;99.90;;;;;;5030913;28;20625;-79
2021/07/16 12:32:45;;;;;;;1.53;0.90;;;19.60;99.90;;;;;;5016838;28;20265;-79
2021/07/16 12:35:23;;;;;;;0.90;0.90;;;19.40;99.90;;;;;;5012418;28;20288;-79
2021/07/16 12:37:51;;;;;;;1.47;1.27;;;19.20;99.90;;;;;;5008442;28;20186;-79
2021/07/16 12:40:22;;;;;;;1.30;1.20;;;19.10;99.90;;;;;;5034010;28;20676;-78
2021/07/16 12:43:06;;;;;;;0.80;0.80;;;18.90;99.90;;;;;;5012645;28;20546;-78
2021/07/16 12:45:38;;;;;;;1.90;1.00;;;18.60;99.90;;;;;;5021742;28;20224;-76
2021/07/16 12:48:30;;;;;;;1.57;0.90;;;18.30;99.90;;;;;;5025216;28;20553;-78
2021/07/16 12:51:09;;;;;;;1.33;0.93;;;18.20;99.90;;;;;;5021510;28;20683;-79